createdAt,value
2023-03-26T00:01:21.410Z,1.90
2023-03-26T00:03:53.865Z,1.10
2023-03-26T00:06:27.130Z,2.60
2023-03-26T00:08:59.279Z,1.80
2023-03-26T00:11:29.436Z,2.50
2023-03-26T00:13:58.126Z,1.60
2023-03-26T00:16:28.973Z,2.20
2023-03-26T00:18:58.056Z,2.50
2023-03-26T00:21:28.458Z,3.00
2023-03-26T00:23:59.853Z,2.70
2023-03-26T00:26:29.723Z,1.40
2023-03-26T00:29:01.867Z,1.40
2023-03-26T00:31:30.420Z,4.30
2023-03-26T00:33:58.396Z,2.30
2023-03-26T00:36:26.899Z,1.50
2023-03-26T00:38:55.525Z,1.90
2023-03-26T00:41:26.453Z,1.50
2023-03-26T00:43:57.648Z,2.50
2023-03-26T00:46:28.028Z,1.10
2023-03-26T00:48:59.929Z,0.60
2023-03-26T00:51:28.724Z,2.80
2023-03-26T00:53:57.804Z,2.50
2023-03-26T00:56:26.856Z,4.00
2023-03-26T00:58:54.912Z,2.00
2023-03-26T01:01:28.472Z,1.40
2023-03-26T01:04:07.562Z,4.00
2023-03-26T01:06:41.461Z,3.00
2023-03-26T01:09:18.820Z,1.60
2023-03-26T01:11:48.779Z,4.00
2023-03-26T01:14:26.854Z,2.70
2023-03-26T01:16:57.143Z,0.70
2023-03-26T01:19:25.016Z,3.30
2023-03-26T01:21:52.987Z,4.80
2023-03-26T01:24:22.299Z,3.00
2023-03-26T01:27:09.681Z,2.70
2023-03-26T01:30:07.084Z,2.50
2023-03-26T01:32:51.704Z,1.90
2023-03-26T01:35:25.681Z,2.60
2023-03-26T01:38:11.380Z,1.30
2023-03-26T01:40:55.363Z,4.10
2023-03-26T01:43:33.380Z,3.90
2023-03-26T01:46:04.384Z,3.20
2023-03-26T01:48:38.685Z,1.00
2023-03-26T01:51:07.465Z,2.10
2023-03-26T01:53:38.313Z,3.40
2023-03-26T01:56:19.951Z,3.40
2023-03-26T01:59:09.486Z,4.10
2023-03-26T02:02:01.223Z,2.60
2023-03-26T02:04:53.297Z,2.90
2023-03-26T02:07:28.750Z,2.20
2023-03-26T02:09:59.688Z,1.00
2023-03-26T02:12:28.064Z,1.70
2023-03-26T02:14:56.341Z,3.60
2023-03-26T02:17:24.583Z,3.20
2023-03-26T02:19:54.268Z,1.70
2023-03-26T02:22:23.008Z,2.20
2023-03-26T02:24:51.036Z,2.30
2023-03-26T02:27:19.276Z,3.50
2023-03-26T02:29:47.880Z,4.40
2023-03-26T02:32:19.391Z,1.70
2023-03-26T02:34:47.486Z,3.20
2023-03-26T02:37:18.897Z,1.90
2023-03-26T02:39:47.763Z,1.70
2023-03-26T02:42:24.795Z,3.40
2023-03-26T02:44:53.839Z,3.20
2023-03-26T02:47:21.997Z,4.30
2023-03-26T02:49:53.566Z,3.10
2023-03-26T02:52:26.375Z,1.30
2023-03-26T02:54:56.589Z,3.10
2023-03-26T02:57:26.396Z,2.90
2023-03-26T03:00:15.294Z,1.90
2023-03-26T03:03:06.686Z,1.60
2023-03-26T03:05:35.194Z,1.70
2023-03-26T03:08:23.643Z,0.90
2023-03-26T03:11:27.355Z,1.30
2023-03-26T03:13:55.495Z,1.40
2023-03-26T03:16:25.878Z,1.20
2023-03-26T03:18:57.428Z,1.10
2023-03-26T03:21:36.296Z,2.40
2023-03-26T03:24:08.060Z,3.00
2023-03-26T03:26:38.823Z,0.60
2023-03-26T03:29:16.747Z,2.20
2023-03-26T03:31:44.816Z,2.30
2023-03-26T03:34:25.545Z,4.30
2023-03-26T03:36:53.833Z,1.40
2023-03-26T03:39:42.266Z,1.30
2023-03-26T03:42:13.424Z,3.50
2023-03-26T03:44:44.401Z,8.40
2023-03-26T03:47:26.733Z,6.00
2023-03-26T03:49:54.787Z,6.80
2023-03-26T03:52:25.174Z,7.50
2023-03-26T03:54:53.582Z,5.10
2023-03-26T03:57:44.351Z,3.80
2023-03-26T04:00:17.986Z,5.70
2023-03-26T04:02:50.556Z,3.60
2023-03-26T04:05:18.946Z,1.50
2023-03-26T04:07:48.609Z,1.10
2023-03-26T04:10:52.102Z,3.20
2023-03-26T04:13:38.702Z,2.80
2023-03-26T04:16:19.190Z,3.40
2023-03-26T04:18:49.633Z,5.30
2023-03-26T04:21:17.577Z,1.20
2023-03-26T04:23:45.999Z,1.20
2023-03-26T04:26:25.178Z,2.40
2023-03-26T04:29:06.818Z,1.00
2023-03-26T04:31:38.349Z,2.20
2023-03-26T04:34:13.634Z,1.10
2023-03-26T04:36:54.686Z,1.30
2023-03-26T04:39:34.089Z,1.00
2023-03-26T04:42:33.419Z,2.50
2023-03-26T04:45:09.329Z,2.40
2023-03-26T04:47:39.136Z,2.40
2023-03-26T04:50:09.344Z,2.90
2023-03-26T04:52:38.285Z,1.40
2023-03-26T04:55:39.841Z,3.30
2023-03-26T04:58:14.358Z,2.30
2023-03-26T05:01:09.857Z,2.40
2023-03-26T05:03:41.311Z,3.80
2023-03-26T05:08:39.368Z,3.00
2023-03-26T05:11:11.541Z,3.20
2023-03-26T05:13:42.844Z,0.60
2023-03-26T05:16:12.559Z,1.90
2023-03-26T05:18:53.107Z,8.00
2023-03-26T05:21:25.836Z,2.10
2023-03-26T05:23:54.063Z,3.00
2023-03-26T05:26:22.990Z,4.40
2023-03-26T05:28:52.797Z,1.10
2023-03-26T05:31:41.391Z,2.00
2023-03-26T05:34:09.590Z,2.50
2023-03-26T05:36:37.954Z,3.30
2023-03-26T05:39:27.072Z,3.70
2023-03-26T05:42:10.334Z,0.70
2023-03-26T05:44:54.289Z,2.20
2023-03-26T05:49:54.599Z,2.80
2023-03-26T05:52:23.007Z,0.70
2023-03-26T05:55:29.201Z,1.10
2023-03-26T05:58:15.953Z,3.70
2023-03-26T06:01:08.677Z,2.50
2023-03-26T06:03:57.037Z,2.80
2023-03-26T06:06:28.904Z,2.30
2023-03-26T06:09:01.767Z,2.30
2023-03-26T06:11:35.066Z,2.00
2023-03-26T06:14:05.729Z,0.90
2023-03-26T06:16:34.371Z,1.30
2023-03-26T06:19:38.023Z,0.90
2023-03-26T06:22:24.864Z,0.50
2023-03-26T06:25:24.932Z,3.30
2023-03-26T06:28:06.190Z,2.30
2023-03-26T06:30:53.968Z,3.00
2023-03-26T06:33:51.484Z,2.30
2023-03-26T06:36:19.665Z,1.80
2023-03-26T06:38:50.705Z,1.60
2023-03-26T06:41:18.705Z,3.70
2023-03-26T06:44:16.101Z,3.50
2023-03-26T06:47:02.732Z,1.50
2023-03-26T06:49:49.386Z,1.50
2023-03-26T06:52:20.000Z,1.20
2023-03-26T06:55:10.454Z,1.70
2023-03-26T06:57:51.311Z,1.60
2023-03-26T07:00:38.801Z,1.30
2023-03-26T07:03:25.830Z,4.60
2023-03-26T07:06:12.282Z,2.40
2023-03-26T07:08:59.066Z,2.70
2023-03-26T07:11:32.167Z,1.80
2023-03-26T07:14:18.948Z,2.60
2023-03-26T07:17:10.748Z,1.00
2023-03-26T07:19:49.243Z,3.30
2023-03-26T07:22:23.296Z,1.60
2023-03-26T07:25:11.054Z,1.90
2023-03-26T07:28:06.544Z,1.40
2023-03-26T07:31:03.909Z,3.00
2023-03-26T07:33:50.575Z,3.70
2023-03-26T07:36:57.915Z,0.90
2023-03-26T07:40:15.175Z,2.10
2023-03-26T07:43:13.567Z,0.90
2023-03-26T07:46:01.211Z,1.90
2023-03-26T07:48:54.989Z,2.30
2023-03-26T07:51:43.563Z,1.30
2023-03-26T07:54:29.035Z,3.20
2023-03-26T07:58:21.563Z,1.90
2023-03-26T08:01:23.219Z,2.20
2023-03-26T08:04:23.174Z,1.60
2023-03-26T08:07:31.275Z,3.80
2023-03-26T08:10:27.682Z,1.00
2023-03-26T08:13:29.590Z,2.10
2023-03-26T08:16:08.980Z,1.80
2023-03-26T08:18:56.861Z,1.20
2023-03-26T08:21:31.933Z,2.70
2023-03-26T08:24:13.341Z,2.10
2023-03-26T08:27:08.828Z,2.40
2023-03-26T08:29:45.315Z,1.80
2023-03-26T08:32:16.335Z,0.80
2023-03-26T08:34:45.455Z,0.70
2023-03-26T08:37:13.674Z,0.60
2023-03-26T08:39:42.548Z,0.60
2023-03-26T08:42:46.166Z,0.30
2023-03-26T08:45:36.141Z,0.90
2023-03-26T08:48:35.622Z,0.40
2023-03-26T08:51:13.766Z,1.10
2023-03-26T08:54:13.368Z,4.20
2023-03-26T08:57:03.954Z,2.90
2023-03-26T08:59:47.180Z,1.20
2023-03-26T14:02:42.612Z,2.90
2023-03-26T14:05:28.631Z,2.40
2023-03-26T14:08:52.417Z,3.50
2023-03-26T14:11:28.238Z,4.30
2023-03-26T14:14:10.953Z,2.10
2023-03-26T14:16:47.191Z,3.90
2023-03-26T14:19:34.028Z,2.20
2023-03-26T14:22:18.348Z,1.80
2023-03-26T14:25:02.752Z,1.80
2023-03-26T14:27:51.743Z,2.80
2023-03-26T14:30:49.104Z,3.30
2023-03-26T14:33:55.538Z,1.30
2023-03-26T14:36:54.757Z,2.50
2023-03-26T14:39:38.671Z,1.90
2023-03-26T14:42:15.393Z,2.60
2023-03-26T14:44:56.751Z,3.70
2023-03-26T14:47:25.378Z,3.90
2023-03-26T14:50:28.818Z,1.60
2023-03-26T14:53:01.355Z,1.00
2023-03-26T14:56:13.722Z,2.80
2023-03-26T14:59:18.978Z,1.80
2023-03-26T15:02:25.277Z,2.00
2023-03-26T15:05:07.238Z,0.70
2023-03-26T15:07:51.134Z,1.60
2023-03-26T15:10:47.287Z,1.40
2023-03-26T15:13:56.312Z,1.40
2023-03-26T15:16:46.407Z,1.50
2023-03-26T15:19:23.548Z,1.80
2023-03-26T15:22:36.255Z,1.90
2023-03-26T15:25:09.899Z,2.40
2023-03-26T15:28:21.519Z,1.30
2023-03-26T15:31:19.172Z,2.70
2023-03-26T15:34:08.939Z,3.70
2023-03-26T15:37:05.276Z,3.00
2023-03-26T15:40:08.112Z,2.50
2023-03-26T15:43:03.041Z,2.40
2023-03-26T15:45:41.389Z,1.20
2023-03-26T15:48:12.439Z,2.80
2023-03-26T15:51:26.138Z,2.00
2023-03-26T15:54:23.758Z,2.60
2023-03-26T15:57:03.244Z,2.00
2023-03-26T15:59:52.483Z,1.40
2023-03-26T16:02:43.878Z,3.10
2023-03-26T16:05:33.600Z,3.10
2023-03-26T16:08:19.101Z,3.20
2023-03-26T16:11:08.203Z,1.60
2023-03-26T16:13:41.284Z,2.70
2023-03-26T16:17:13.086Z,4.10
2023-03-26T16:20:20.254Z,1.60
2023-03-26T16:22:55.015Z,2.60
2023-03-26T16:25:28.674Z,3.80
2023-03-26T16:28:09.594Z,2.20
2023-03-26T16:30:38.297Z,2.20
2023-03-26T16:33:31.996Z,2.40
2023-03-26T16:36:02.020Z,2.90
2023-03-26T16:38:59.537Z,2.40
2023-03-26T16:41:32.567Z,2.80
2023-03-26T16:44:28.336Z,2.00
2023-03-26T16:47:18.557Z,2.00
2023-03-26T16:50:08.984Z,2.30
2023-03-26T16:52:44.139Z,3.30
2023-03-26T16:55:31.072Z,3.70
2023-03-26T16:58:17.231Z,3.90
2023-03-26T17:00:48.597Z,3.70
2023-03-26T17:03:35.564Z,4.10
2023-03-26T17:06:20.910Z,3.60
2023-03-26T17:09:18.070Z,5.20
2023-03-26T17:12:04.779Z,3.00
2023-03-26T17:14:50.217Z,3.50
2023-03-26T17:17:23.831Z,4.30
2023-03-26T17:19:59.559Z,2.60
2023-03-26T17:22:41.941Z,4.00
2023-03-26T17:25:57.524Z,2.80
2023-03-26T17:28:42.772Z,3.90
2023-03-26T17:31:19.812Z,5.00
2023-03-26T17:33:48.121Z,3.00
2023-03-26T17:36:22.147Z,5.70
2023-03-26T17:38:49.998Z,3.60
2023-03-26T17:42:23.244Z,5.20
2023-03-26T17:44:55.992Z,3.90
2023-03-26T17:47:54.029Z,4.40
2023-03-26T17:50:50.896Z,5.40
2023-03-26T17:53:38.610Z,7.10
2023-03-26T17:56:16.873Z,5.50
2023-03-26T17:58:50.885Z,6.50
2023-03-26T18:01:37.097Z,8.20
2023-03-26T18:04:19.954Z,8.00
2023-03-26T18:07:06.764Z,7.00
2023-03-26T18:10:06.794Z,7.20
2023-03-26T18:12:42.520Z,7.90
2023-03-26T18:15:30.594Z,7.50
2023-03-26T18:18:46.636Z,6.30
2023-03-26T18:21:33.699Z,6.90
2023-03-26T18:24:03.999Z,6.50
2023-03-26T18:26:42.081Z,6.20
2023-03-26T18:29:17.443Z,4.90
2023-03-26T18:31:46.783Z,6.20
2023-03-26T18:34:19.711Z,5.60
2023-03-26T18:37:10.253Z,5.50
2023-03-26T18:45:32.334Z,7.10
2023-03-26T18:48:13.794Z,5.50
2023-03-26T18:50:42.467Z,6.00
2023-03-26T18:53:20.729Z,5.10
2023-03-26T18:55:50.791Z,4.40
2023-03-26T18:58:27.582Z,5.40
2023-03-26T19:01:04.346Z,5.50
2023-03-26T19:03:39.979Z,6.90
2023-03-26T19:06:11.063Z,5.90
2023-03-26T19:08:42.562Z,10.70
2023-03-26T19:11:12.052Z,12.20
2023-03-26T19:13:44.282Z,9.70
2023-03-26T19:16:24.411Z,11.00
2023-03-26T19:18:52.881Z,18.90
2023-03-26T19:21:23.316Z,19.20
2023-03-26T19:23:52.315Z,22.10
2023-03-26T19:26:22.913Z,18.90
2023-03-26T19:28:53.817Z,21.50
2023-03-26T19:31:30.385Z,26.30
2023-03-26T19:34:00.681Z,16.80
2023-03-26T19:36:32.142Z,13.90
2023-03-26T19:39:02.609Z,14.00
2023-03-26T19:41:32.133Z,13.90
2023-03-26T19:44:03.425Z,13.30
2023-03-26T19:46:53.896Z,9.40
2023-03-26T19:49:42.589Z,8.30
2023-03-26T19:52:18.450Z,7.90
2023-03-26T19:55:01.361Z,6.20
2023-03-26T19:57:36.453Z,4.80
2023-03-26T20:00:13.748Z,3.70
2023-03-26T20:02:43.362Z,6.10
2023-03-26T20:05:26.446Z,5.80
2023-03-26T20:07:58.478Z,5.90
2023-03-26T20:10:27.630Z,8.20
2023-03-26T20:12:56.253Z,7.00
2023-03-26T20:15:28.680Z,5.60
2023-03-26T20:17:57.092Z,5.90
2023-03-26T20:20:27.233Z,5.40
2023-03-26T20:22:55.804Z,5.50
2023-03-26T20:25:29.996Z,5.60
2023-03-26T20:27:59.549Z,8.50
2023-03-26T20:33:12.962Z,5.80
2023-03-26T20:35:46.648Z,8.10
2023-03-26T20:38:19.814Z,7.50
2023-03-26T20:40:49.687Z,6.00
2023-03-26T20:43:22.536Z,6.10
2023-03-26T20:45:52.617Z,8.20
2023-03-26T20:48:21.000Z,8.90
2023-03-26T20:50:50.936Z,8.70
2023-03-26T20:53:20.879Z,8.60
2023-03-26T20:55:51.021Z,8.60
2023-03-26T20:58:31.341Z,5.70
2023-03-26T21:01:02.079Z,10.90
2023-03-26T21:03:31.448Z,9.30
2023-03-26T21:06:07.677Z,8.00
2023-03-26T21:08:37.305Z,10.50
2023-03-26T21:11:27.411Z,8.50
2023-03-26T21:14:08.692Z,6.70
2023-03-26T21:16:37.581Z,5.80
2023-03-26T21:19:05.847Z,6.80
2023-03-26T21:21:46.570Z,6.40
2023-03-26T21:24:33.542Z,5.20
2023-03-26T21:27:16.464Z,7.60
2023-03-26T21:29:45.633Z,4.30
2023-03-26T21:32:14.781Z,4.50
2023-03-26T21:34:55.709Z,5.30
2023-03-26T21:37:28.209Z,2.70
2023-03-26T21:39:58.174Z,5.80
2023-03-26T21:42:29.497Z,6.30
2023-03-26T21:44:58.239Z,4.40
2023-03-26T21:47:27.478Z,4.10
2023-03-26T21:49:56.036Z,4.20
2023-03-26T21:52:25.370Z,5.30
2023-03-26T21:54:56.743Z,5.90
2023-03-26T21:57:45.904Z,4.70
2023-03-26T22:00:18.436Z,5.80
2023-03-26T22:03:20.158Z,5.70
2023-03-26T22:06:07.351Z,4.50
2023-03-26T22:08:38.956Z,6.40
2023-03-26T22:11:09.734Z,5.30
2023-03-26T22:13:39.762Z,6.20
2023-03-26T22:16:10.794Z,4.40
2023-03-26T22:18:39.697Z,7.50
2023-03-26T22:21:08.104Z,7.80
2023-03-26T22:23:38.815Z,7.60
2023-03-26T22:26:07.413Z,6.20
2023-03-26T22:28:37.085Z,7.40
2023-03-26T22:31:08.525Z,6.70
2023-03-26T22:33:40.243Z,5.40
2023-03-26T22:36:22.186Z,6.80
2023-03-26T22:38:54.120Z,6.90
2023-03-26T22:41:22.812Z,5.90
2023-03-26T22:43:54.830Z,7.90
2023-03-26T22:48:53.866Z,8.20
2023-03-26T22:51:23.227Z,8.80
2023-03-26T22:53:51.255Z,6.40
2023-03-26T22:56:20.363Z,7.10
2023-03-26T22:58:48.817Z,4.10
2023-03-26T23:01:20.548Z,6.90
2023-03-26T23:03:50.597Z,7.50
2023-03-26T23:06:21.802Z,7.90
2023-03-26T23:08:51.295Z,8.90
2023-03-26T23:11:22.580Z,6.80
2023-03-26T23:13:51.735Z,5.80
2023-03-26T23:16:21.979Z,7.10
2023-03-26T23:18:50.036Z,5.20
2023-03-26T23:21:21.471Z,4.90
2023-03-26T23:23:52.258Z,6.90
2023-03-26T23:26:20.507Z,6.30
2023-03-26T23:28:51.534Z,5.30
2023-03-26T23:31:19.535Z,7.40
2023-03-26T23:33:50.787Z,5.00
2023-03-26T23:36:20.988Z,6.40
2023-03-26T23:38:49.278Z,7.60
2023-03-26T23:41:21.991Z,6.90
2023-03-26T23:43:53.945Z,4.90
2023-03-26T23:46:26.010Z,7.60
2023-03-26T23:48:55.000Z,5.90
2023-03-26T23:51:24.259Z,5.40
2023-03-26T23:53:53.845Z,6.20
2023-03-26T23:56:22.769Z,7.60
2023-03-26T23:58:51.173Z,5.30
